PWSweather.com
Personal Weather Stations
Station Observations

SkegnessGB

Lat: 53.147585, Lon: 0.345774

Elevation: 18

Station Type: Fine Offset WH3080

http://www.skegnessweather.info/

High Low Average
Temperature 70.3°F21.3°C 55.2°F12.9°C 60.6°F15.9°C
Dew Point 63.6°F17.6°C 49.0°F9.4°C 54.5°F12.5°C
Winds 16.1 mph 25.9 kmh 3.3 mph 5.3 kmh 10.0 mph S16.1 kmh S
Wind Gusts 26.8 mph43.1 kmh 4.2 mph6.8 kmh 12.0 mph19.3 kmh
Humidity 99% 55% 82%
Pressure 29.58 in1001.7 mb 29.46 in997.6 mb -
Precipitation 0.21 in5.3 mm - -
Hour Temp Dew Point Humidity Winds Wind Gusts Pressure Precip Precip Rate Daily Precip Total
12:00 AM 56.1°F13.4°C 55.6°F13.1°C 98% 3.3 mph S5.3 kmh S 4.9 mph7.9 kmh 29.54 in1000.3 mb 0.00 in0.0 mm 0.00 in0.0 mm 0.00 in0.0 mm
12:10 AM 56.3°F13.5°C 55.7°F13.2°C 98% 3.4 mph S5.5 kmh S 4.2 mph6.8 kmh 29.54 in1000.3 mb 0.00 in0.0 mm 0.00 in0.0 mm 0.00 in0.0 mm
12:20 AM 56.5°F13.6°C 55.9°F13.3°C 98% 4.4 mph S7.1 kmh S 6.6 mph10.6 kmh 29.55 in1000.7 mb 0.00 in0.0 mm 0.00 in0.0 mm 0.00 in0.0 mm
12:30 AM 56.7°F13.7°C 56.1°F13.4°C 98% 6.2 mph SSE10.0 kmh SSE 6.6 mph10.6 kmh 29.55 in1000.7 mb 0.00 in0.0 mm 0.00 in0.0 mm 0.00 in0.0 mm
12:40 AM 56.8°F13.8°C 56.3°F13.5°C 98% 5.1 mph SE8.2 kmh SE 6.6 mph10.6 kmh 29.55 in1000.7 mb 0.00 in0.0 mm 0.00 in0.0 mm 0.00 in0.0 mm
12:50 AM 57.0°F13.9°C 56.5°F13.6°C 98% 6.7 mph SSW10.8 kmh SSW 7.6 mph12.2 kmh 29.54 in1000.3 mb 0.00 in0.0 mm 0.00 in0.0 mm 0.00 in0.0 mm
01:00 AM 57.2°F14.0°C 56.9°F13.8°C 99% 6.2 mph S10.0 kmh S 6.6 mph10.6 kmh 29.54 in1000.3 mb 0.00 in0.0 mm 0.00 in0.0 mm 0.00 in0.0 mm
01:10 AM 57.4°F14.1°C 57.1°F13.9°C 99% 7.9 mph SSE12.7 kmh SSE 8.4 mph13.5 kmh 29.54 in1000.3 mb 0.00 in0.0 mm 0.00 in0.0 mm 0.00 in0.0 mm
01:20 AM 57.4°F14.1°C 57.1°F13.9°C 99% 7.2 mph S11.6 kmh S 7.6 mph12.2 kmh 29.54 in1000.3 mb 0.00 in0.0 mm 0.00 in0.0 mm 0.00 in0.0 mm
01:30 AM 57.6°F14.2°C 57.3°F14.1°C 99% 6.1 mph S9.8 kmh S 8.4 mph13.5 kmh 29.53 in1000.0 mb 0.00 in0.0 mm 0.00 in0.0 mm 0.00 in0.0 mm
01:40 AM 57.6°F14.2°C 57.3°F14.1°C 99% 8.6 mph SSE13.8 kmh SSE 8.4 mph13.5 kmh 29.53 in1000.0 mb 0.00 in0.0 mm 0.00 in0.0 mm 0.00 in0.0 mm
01:50 AM 57.7°F14.3°C 57.5°F14.2°C 99% 8.0 mph S12.9 kmh S 13.3 mph21.4 kmh 29.52 in999.7 mb 0.01 in0.3 mm 0.06 in1.5 mm 0.01 in0.3 mm
02:00 AM 57.7°F14.3°C 57.5°F14.2°C 99% 11.1 mph S17.9 kmh S 11.8 mph19.0 kmh 29.53 in1000.0 mb 0.01 in0.3 mm 0.00 in0.0 mm 0.01 in0.3 mm
02:10 AM 57.9°F14.4°C 57.4°F14.1°C 98% 8.9 mph SW14.3 kmh SW 9.1 mph14.6 kmh 29.52 in999.7 mb 0.01 in0.3 mm 0.00 in0.0 mm 0.01 in0.3 mm
02:20 AM 57.9°F14.4°C 57.4°F14.1°C 98% 11.7 mph S18.8 kmh S 12.5 mph20.1 kmh 29.52 in999.7 mb 0.01 in0.3 mm 0.00 in0.0 mm 0.01 in0.3 mm
02:30 AM 58.1°F14.5°C 57.5°F14.2°C 98% 11.7 mph SSW18.8 kmh SSW 10.8 mph17.4 kmh 29.51 in999.3 mb 0.01 in0.3 mm 0.00 in0.0 mm 0.01 in0.3 mm
02:40 AM 58.1°F14.5°C 57.3°F14.1°C 97% 11.0 mph SSW17.7 kmh SSW 10.8 mph17.4 kmh 29.52 in999.7 mb 0.01 in0.3 mm 0.00 in0.0 mm 0.01 in0.3 mm
02:50 AM 58.1°F14.5°C 57.3°F14.1°C 97% 9.4 mph SSE15.1 kmh SSE 9.1 mph14.6 kmh 29.52 in999.7 mb 0.00 in0.0 mm 0.00 in0.0 mm 0.01 in0.3 mm
03:00 AM 58.1°F14.5°C 57.0°F13.9°C 96% 9.5 mph S15.3 kmh S 10.1 mph16.3 kmh 29.52 in999.7 mb 0.01 in0.3 mm 0.01 in0.3 mm 0.02 in0.5 mm
03:10 AM 57.7°F14.3°C 56.6°F13.7°C 96% 12.1 mph SSE19.5 kmh SSE 14.3 mph23.0 kmh 29.51 in999.3 mb 0.02 in0.5 mm 0.06 in1.5 mm 0.04 in1.0 mm
03:20 AM 57.6°F14.2°C 56.4°F13.6°C 96% 11.0 mph SSE17.7 kmh SSE 10.8 mph17.4 kmh 29.51 in999.3 mb 0.05 in1.3 mm 0.18 in4.6 mm 0.06 in1.5 mm
03:30 AM 57.6°F14.2°C 56.4°F13.6°C 96% 11.6 mph S18.7 kmh S 12.5 mph20.1 kmh 29.51 in999.3 mb 0.06 in1.5 mm 0.06 in1.5 mm 0.07 in1.8 mm
03:40 AM 57.6°F14.2°C 56.7°F13.7°C 97% 11.2 mph SSE18.0 kmh SSE 10.8 mph17.4 kmh 29.51 in999.3 mb 0.06 in1.5 mm 0.00 in0.0 mm 0.07 in1.8 mm
03:50 AM 57.6°F14.2°C 56.7°F13.7°C 97% 12.1 mph SE19.5 kmh SE 12.5 mph20.1 kmh 29.50 in999.0 mb 0.07 in1.8 mm 0.06 in1.5 mm 0.08 in2.0 mm
04:00 AM 57.7°F14.3°C 57.2°F14.0°C 98% 11.5 mph SSE18.5 kmh SSE 13.3 mph21.4 kmh 29.50 in999.0 mb 0.06 in1.5 mm 0.00 in0.0 mm 0.08 in2.0 mm
04:10 AM 57.7°F14.3°C 57.5°F14.2°C 99% 15.0 mph SW24.1 kmh SW 13.3 mph21.4 kmh 29.50 in999.0 mb 0.06 in1.5 mm 0.00 in0.0 mm 0.09 in2.3 mm
04:20 AM 57.9°F14.4°C 57.6°F14.2°C 99% 13.6 mph SE21.9 kmh SE 13.3 mph21.4 kmh 29.50 in999.0 mb 0.05 in1.3 mm 0.00 in0.0 mm 0.11 in2.8 mm
04:30 AM 57.9°F14.4°C 57.6°F14.2°C 99% 15.2 mph SSE24.5 kmh SSE 13.3 mph21.4 kmh 29.49 in998.6 mb 0.04 in1.0 mm 0.00 in0.0 mm 0.11 in2.8 mm
04:40 AM 58.1°F14.5°C 57.8°F14.3°C 99% 12.4 mph SSE20.0 kmh SSE 13.3 mph21.4 kmh 29.49 in998.6 mb 0.04 in1.0 mm 0.00 in0.0 mm 0.11 in2.8 mm
04:50 AM 58.3°F14.6°C 58.0°F14.4°C 99% 15.5 mph SSE24.9 kmh SSE 16.0 mph25.7 kmh 29.48 in998.3 mb 0.04 in1.0 mm 0.00 in0.0 mm 0.12 in3.0 mm
05:00 AM 58.3°F14.6°C 58.0°F14.4°C 99% 14.8 mph S23.8 kmh S 13.3 mph21.4 kmh 29.49 in998.6 mb 0.04 in1.0 mm 0.00 in0.0 mm 0.12 in3.0 mm
05:10 AM 58.5°F14.7°C 58.2°F14.6°C 99% 14.3 mph S23.0 kmh S 16.0 mph25.7 kmh 29.48 in998.3 mb 0.02 in0.5 mm 0.00 in0.0 mm 0.12 in3.0 mm
05:20 AM 58.5°F14.7°C 58.2°F14.6°C 99% 14.9 mph SSE24.0 kmh SSE 16.0 mph25.7 kmh 29.48 in998.3 mb 0.01 in0.3 mm 0.00 in0.0 mm 0.12 in3.0 mm
05:30 AM 58.5°F14.7°C 58.2°F14.6°C 99% 14.1 mph SE22.7 kmh SE 18.5 mph29.8 kmh 29.47 in998.0 mb 0.01 in0.3 mm 0.00 in0.0 mm 0.12 in3.0 mm
05:40 AM 58.6°F14.8°C 58.4°F14.7°C 99% 14.2 mph S22.9 kmh S 14.3 mph23.0 kmh 29.48 in998.3 mb 0.01 in0.3 mm 0.00 in0.0 mm 0.12 in3.0 mm
05:50 AM 58.6°F14.8°C 58.4°F14.7°C 99% 13.6 mph SSE21.9 kmh SSE 14.3 mph23.0 kmh 29.48 in998.3 mb 0.00 in0.0 mm 0.00 in0.0 mm 0.12 in3.0 mm
06:00 AM 58.8°F14.9°C 58.5°F14.7°C 99% 13.6 mph SSE21.9 kmh SSE 15.0 mph24.1 kmh 29.48 in998.3 mb 0.00 in0.0 mm 0.00 in0.0 mm 0.12 in3.0 mm
06:10 AM 59.0°F15.0°C 58.7°F14.8°C 99% 13.5 mph S21.7 kmh S 13.3 mph21.4 kmh 29.46 in997.6 mb 0.00 in0.0 mm 0.00 in0.0 mm 0.12 in3.0 mm
06:20 AM 59.0°F15.0°C 58.7°F14.8°C 99% 12.0 mph S19.3 kmh S 12.5 mph20.1 kmh 29.47 in998.0 mb 0.00 in0.0 mm 0.00 in0.0 mm 0.12 in3.0 mm
06:30 AM 59.2°F15.1°C 58.9°F14.9°C 99% 15.2 mph SSE24.5 kmh SSE 14.3 mph23.0 kmh 29.47 in998.0 mb 0.00 in0.0 mm 0.00 in0.0 mm 0.12 in3.0 mm
06:40 AM 59.4°F15.2°C 59.1°F15.1°C 99% 14.5 mph SSE23.3 kmh SSE 14.3 mph23.0 kmh 29.47 in998.0 mb 0.00 in0.0 mm 0.00 in0.0 mm 0.12 in3.0 mm
06:50 AM 59.7°F15.4°C 59.4°F15.2°C 99% 14.7 mph S23.7 kmh S 16.0 mph25.7 kmh 29.47 in998.0 mb 0.00 in0.0 mm 0.00 in0.0 mm 0.12 in3.0 mm
07:00 AM 59.7°F15.4°C 59.4°F15.2°C 99% 13.2 mph SSE21.2 kmh SSE 15.0 mph24.1 kmh 29.46 in997.6 mb 0.00 in0.0 mm 0.00 in0.0 mm 0.12 in3.0 mm
07:10 AM 59.7°F15.4°C 59.4°F15.2°C 99% 14.8 mph S23.8 kmh S 15.0 mph24.1 kmh 29.46 in997.6 mb 0.00 in0.0 mm 0.00 in0.0 mm 0.12 in3.0 mm
07:20 AM 59.9°F15.5°C 59.6°F15.3°C 99% 12.6 mph SSE20.3 kmh SSE 15.0 mph24.1 kmh 29.46 in997.6 mb 0.00 in0.0 mm 0.00 in0.0 mm 0.12 in3.0 mm
07:30 AM 60.1°F15.6°C 59.8°F15.4°C 99% 13.2 mph SSE21.2 kmh SSE 12.5 mph20.1 kmh 29.46 in997.6 mb 0.00 in0.0 mm 0.00 in0.0 mm 0.12 in3.0 mm
07:40 AM 60.3°F15.7°C 60.0°F15.6°C 99% 14.4 mph SSE23.2 kmh SSE 14.3 mph23.0 kmh 29.46 in997.6 mb 0.00 in0.0 mm 0.00 in0.0 mm 0.12 in3.0 mm
07:50 AM 60.4°F15.8°C 60.2°F15.7°C 99% 15.5 mph SSE24.9 kmh SSE 14.3 mph23.0 kmh 29.46 in997.6 mb 0.00 in0.0 mm 0.00 in0.0 mm 0.12 in3.0 mm
08:00 AM 60.4°F15.8°C 60.2°F15.7°C 99% 14.2 mph S22.9 kmh S 14.3 mph23.0 kmh 29.46 in997.6 mb 0.04 in1.0 mm 0.05 in1.3 mm 0.15 in3.8 mm
08:10 AM 60.3°F15.7°C 60.0°F15.6°C 99% 13.2 mph S21.2 kmh S 17.5 mph28.2 kmh 29.46 in997.6 mb 0.07 in1.8 mm 0.18 in4.6 mm 0.19 in4.8 mm
08:20 AM 60.3°F15.7°C 60.0°F15.6°C 99% 14.1 mph SSE22.7 kmh SSE 16.7 mph26.9 kmh 29.46 in997.6 mb 0.09 in2.3 mm 0.12 in3.0 mm 0.21 in5.3 mm
08:30 AM 60.4°F15.8°C 60.2°F15.7°C 99% 13.4 mph SSE21.6 kmh SSE 14.3 mph23.0 kmh 29.46 in997.6 mb 0.09 in2.3 mm 0.00 in0.0 mm 0.21 in5.3 mm
08:40 AM 60.8°F16.0°C 60.5°F15.8°C 99% 16.1 mph SSE25.9 kmh SSE 16.0 mph25.7 kmh 29.46 in997.6 mb 0.09 in2.3 mm 0.00 in0.0 mm 0.21 in5.3 mm
08:50 AM 61.2°F16.2°C 60.9°F16.1°C 99% 9.6 mph S15.4 kmh S 11.8 mph19.0 kmh 29.46 in997.6 mb 0.09 in2.3 mm 0.00 in0.0 mm 0.21 in5.3 mm
09:00 AM 61.5°F16.4°C 61.2°F16.2°C 99% 13.9 mph S22.4 kmh S 16.0 mph25.7 kmh 29.46 in997.6 mb 0.06 in1.5 mm 0.00 in0.0 mm 0.21 in5.3 mm
09:10 AM 60.4°F15.8°C 60.2°F15.7°C 99% 13.4 mph SSW21.6 kmh SSW 26.8 mph43.1 kmh 29.47 in998.0 mb 0.02 in0.5 mm 0.00 in0.0 mm 0.21 in5.3 mm
09:20 AM 60.3°F15.7°C 60.0°F15.6°C 99% 9.4 mph SE15.1 kmh SE 11.8 mph19.0 kmh 29.48 in998.3 mb 0.00 in0.0 mm 0.00 in0.0 mm 0.21 in5.3 mm
09:30 AM 62.2°F16.8°C 62.0°F16.7°C 99% 8.1 mph S13.0 kmh S 9.1 mph14.6 kmh 29.47 in998.0 mb 0.00 in0.0 mm 0.00 in0.0 mm 0.21 in5.3 mm
09:40 AM 63.9°F17.7°C 63.6°F17.6°C 99% 8.2 mph ENE13.2 kmh ENE 11.8 mph19.0 kmh 29.48 in998.3 mb 0.00 in0.0 mm 0.00 in0.0 mm 0.21 in5.3 mm
09:50 AM 64.9°F18.3°C 60.6°F15.9°C 86% 11.1 mph SW17.9 kmh SW 15.0 mph24.1 kmh 29.48 in998.3 mb 0.00 in0.0 mm 0.00 in0.0 mm 0.21 in5.3 mm
10:00 AM 65.5°F18.6°C 56.6°F13.7°C 73% 11.4 mph WSW18.3 kmh WSW 15.0 mph24.1 kmh 29.48 in998.3 mb 0.00 in0.0 mm 0.00 in0.0 mm 0.21 in5.3 mm
10:10 AM 64.9°F18.3°C 55.3°F12.9°C 71% 12.0 mph SE19.3 kmh SE 12.5 mph20.1 kmh 29.48 in998.3 mb 0.00 in0.0 mm 0.00 in0.0 mm 0.21 in5.3 mm
10:20 AM 65.7°F18.7°C 54.4°F12.4°C 67% 14.8 mph WSW23.8 kmh WSW 16.7 mph26.9 kmh 29.49 in998.6 mb 0.00 in0.0 mm 0.00 in0.0 mm 0.21 in5.3 mm
10:30 AM 66.4°F19.1°C 53.8°F12.1°C 64% 13.6 mph S21.9 kmh S 15.0 mph24.1 kmh 29.50 in999.0 mb 0.00 in0.0 mm 0.00 in0.0 mm 0.21 in5.3 mm
10:40 AM 66.7°F19.3°C 52.9°F11.6°C 61% 13.6 mph SW21.9 kmh SW 16.0 mph25.7 kmh 29.49 in998.6 mb 0.00 in0.0 mm 0.00 in0.0 mm 0.21 in5.3 mm
10:50 AM 67.6°F19.8°C 54.2°F12.3°C 62% 12.0 mph S19.3 kmh S 11.8 mph19.0 kmh 29.50 in999.0 mb 0.00 in0.0 mm 0.00 in0.0 mm 0.21 in5.3 mm
11:00 AM 67.5°F19.7°C 53.5°F11.9°C 61% 11.4 mph SW18.3 kmh SW 10.8 mph17.4 kmh 29.50 in999.0 mb 0.00 in0.0 mm 0.00 in0.0 mm 0.21 in5.3 mm
11:10 AM 68.0°F20.0°C 54.0°F12.2°C 61% 11.1 mph SW17.9 kmh SW 10.8 mph17.4 kmh 29.50 in999.0 mb 0.00 in0.0 mm 0.00 in0.0 mm 0.21 in5.3 mm
11:20 AM 67.5°F19.7°C 52.6°F11.4°C 59% 14.0 mph W22.5 kmh W 18.5 mph29.8 kmh 29.50 in999.0 mb 0.00 in0.0 mm 0.00 in0.0 mm 0.21 in5.3 mm
11:30 AM 67.1°F19.5°C 52.3°F11.3°C 59% 11.8 mph SSW19.0 kmh SSW 12.5 mph20.1 kmh 29.50 in999.0 mb 0.00 in0.0 mm 0.00 in0.0 mm 0.21 in5.3 mm
11:40 AM 67.6°F19.8°C 53.3°F11.8°C 60% 12.6 mph SW20.3 kmh SW 13.3 mph21.4 kmh 29.50 in999.0 mb 0.00 in0.0 mm 0.00 in0.0 mm 0.21 in5.3 mm
11:50 AM 68.5°F20.3°C 54.1°F12.3°C 60% 11.9 mph S19.2 kmh S 13.3 mph21.4 kmh 29.50 in999.0 mb 0.00 in0.0 mm 0.00 in0.0 mm 0.21 in5.3 mm
12:00 PM 69.6°F20.9°C 54.2°F12.3°C 58% 10.4 mph SSW16.7 kmh SSW 16.0 mph25.7 kmh 29.51 in999.3 mb 0.00 in0.0 mm 0.00 in0.0 mm 0.21 in5.3 mm
12:10 PM 70.3°F21.3°C 53.4°F11.9°C 55% 9.9 mph N15.9 kmh N 12.5 mph20.1 kmh 29.51 in999.3 mb 0.00 in0.0 mm 0.00 in0.0 mm 0.21 in5.3 mm
12:20 PM 69.8°F21.0°C 52.9°F11.6°C 55% 10.7 mph SSW17.2 kmh SSW 12.5 mph20.1 kmh 29.51 in999.3 mb 0.00 in0.0 mm 0.00 in0.0 mm 0.21 in5.3 mm
12:30 PM 67.5°F19.7°C 51.7°F10.9°C 57% 10.4 mph SW16.7 kmh SW 16.7 mph26.9 kmh 29.50 in999.0 mb 0.00 in0.0 mm 0.00 in0.0 mm 0.21 in5.3 mm
12:40 PM 68.7°F20.4°C 52.9°F11.6°C 57% 13.3 mph S21.4 kmh S 16.0 mph25.7 kmh 29.50 in999.0 mb 0.00 in0.0 mm 0.00 in0.0 mm 0.21 in5.3 mm
12:50 PM 68.5°F20.3°C 52.7°F11.5°C 57% 10.0 mph SSE16.1 kmh SSE 10.8 mph17.4 kmh 29.50 in999.0 mb 0.00 in0.0 mm 0.00 in0.0 mm 0.21 in5.3 mm
01:00 PM 68.9°F20.5°C 52.6°F11.4°C 56% 13.5 mph S21.7 kmh S 16.0 mph25.7 kmh 29.50 in999.0 mb 0.00 in0.0 mm 0.00 in0.0 mm 0.21 in5.3 mm
01:10 PM 68.7°F20.4°C 53.8°F12.1°C 59% 11.3 mph W18.2 kmh W 13.3 mph21.4 kmh 29.50 in999.0 mb 0.00 in0.0 mm 0.00 in0.0 mm 0.21 in5.3 mm
01:20 PM 66.6°F19.2°C 52.2°F11.2°C 60% 11.4 mph WNW18.3 kmh WNW 11.8 mph19.0 kmh 29.50 in999.0 mb 0.00 in0.0 mm 0.00 in0.0 mm 0.21 in5.3 mm
01:30 PM 68.4°F20.2°C 53.5°F11.9°C 59% 11.3 mph SW18.2 kmh SW 12.5 mph20.1 kmh 29.51 in999.3 mb 0.00 in0.0 mm 0.00 in0.0 mm 0.21 in5.3 mm
01:40 PM 68.7°F20.4°C 52.9°F11.6°C 57% 13.3 mph SSW21.4 kmh SSW 15.0 mph24.1 kmh 29.50 in999.0 mb 0.00 in0.0 mm 0.00 in0.0 mm 0.21 in5.3 mm
01:50 PM 68.5°F20.3°C 52.2°F11.2°C 56% 11.1 mph SW17.9 kmh SW 14.3 mph23.0 kmh 29.51 in999.3 mb 0.00 in0.0 mm 0.00 in0.0 mm 0.21 in5.3 mm
02:00 PM 67.5°F19.7°C 51.7°F10.9°C 57% 12.7 mph SSW20.4 kmh SSW 14.3 mph23.0 kmh 29.51 in999.3 mb 0.00 in0.0 mm 0.00 in0.0 mm 0.21 in5.3 mm
02:10 PM 68.2°F20.1°C 52.4°F11.3°C 57% 10.0 mph SSW16.1 kmh SSW 11.8 mph19.0 kmh 29.51 in999.3 mb 0.00 in0.0 mm 0.00 in0.0 mm 0.21 in5.3 mm
02:20 PM 68.2°F20.1°C 52.4°F11.3°C 57% 13.2 mph SW21.2 kmh SW 11.8 mph19.0 kmh 29.51 in999.3 mb 0.00 in0.0 mm 0.00 in0.0 mm 0.21 in5.3 mm
02:30 PM 68.0°F20.0°C 53.1°F11.7°C 59% 11.7 mph S18.8 kmh S 11.8 mph19.0 kmh 29.51 in999.3 mb 0.00 in0.0 mm 0.00 in0.0 mm 0.21 in5.3 mm
02:40 PM 68.7°F20.4°C 52.9°F11.6°C 57% 11.1 mph S17.9 kmh S 15.0 mph24.1 kmh 29.50 in999.0 mb 0.00 in0.0 mm 0.00 in0.0 mm 0.21 in5.3 mm
02:50 PM 68.0°F20.0°C 52.7°F11.5°C 58% 12.5 mph S20.1 kmh S 14.3 mph23.0 kmh 29.51 in999.3 mb 0.00 in0.0 mm 0.00 in0.0 mm 0.21 in5.3 mm
03:00 PM 67.6°F19.8°C 52.3°F11.3°C 58% 11.4 mph S18.3 kmh S 15.0 mph24.1 kmh 29.51 in999.3 mb 0.00 in0.0 mm 0.00 in0.0 mm 0.21 in5.3 mm
03:10 PM 67.3°F19.6°C 52.5°F11.4°C 59% 13.0 mph S20.9 kmh S 16.7 mph26.9 kmh 29.51 in999.3 mb 0.00 in0.0 mm 0.00 in0.0 mm 0.21 in5.3 mm
03:20 PM 66.6°F19.2°C 52.2°F11.2°C 60% 14.0 mph WSW22.5 kmh WSW 14.3 mph23.0 kmh 29.51 in999.3 mb 0.00 in0.0 mm 0.00 in0.0 mm 0.21 in5.3 mm
03:30 PM 66.2°F19.0°C 52.3°F11.3°C 61% 11.6 mph SW18.7 kmh SW 13.3 mph21.4 kmh 29.51 in999.3 mb 0.00 in0.0 mm 0.00 in0.0 mm 0.21 in5.3 mm
03:40 PM 65.1°F18.4°C 51.8°F11.0°C 62% 10.8 mph SSW17.4 kmh SSW 13.3 mph21.4 kmh 29.52 in999.7 mb 0.00 in0.0 mm 0.00 in0.0 mm 0.21 in5.3 mm
03:50 PM 64.6°F18.1°C 52.1°F11.2°C 64% 10.5 mph S16.9 kmh S 10.8 mph17.4 kmh 29.52 in999.7 mb 0.00 in0.0 mm 0.00 in0.0 mm 0.21 in5.3 mm
04:00 PM 64.0°F17.8°C 51.6°F10.9°C 64% 10.8 mph S17.4 kmh S 15.0 mph24.1 kmh 29.52 in999.7 mb 0.00 in0.0 mm 0.00 in0.0 mm 0.21 in5.3 mm
04:10 PM 62.1°F16.7°C 53.3°F11.8°C 73% 10.1 mph SSE16.3 kmh SSE 9.1 mph14.6 kmh 29.52 in999.7 mb 0.00 in0.0 mm 0.00 in0.0 mm 0.21 in5.3 mm
04:20 PM 61.3°F16.3°C 53.7°F12.1°C 76% 5.2 mph WSW8.4 kmh WSW 6.6 mph10.6 kmh 29.52 in999.7 mb 0.00 in0.0 mm 0.00 in0.0 mm 0.21 in5.3 mm
04:30 PM 61.0°F16.1°C 54.1°F12.3°C 78% 3.6 mph S5.8 kmh S 4.9 mph7.9 kmh 29.52 in999.7 mb 0.00 in0.0 mm 0.00 in0.0 mm 0.21 in5.3 mm
04:40 PM 61.3°F16.3°C 54.4°F12.4°C 78% 7.1 mph SE11.4 kmh SE 15.0 mph24.1 kmh 29.52 in999.7 mb 0.00 in0.0 mm 0.00 in0.0 mm 0.21 in5.3 mm
04:50 PM 61.3°F16.3°C 52.6°F11.4°C 73% 13.4 mph S21.6 kmh S 17.5 mph28.2 kmh 29.53 in1000.0 mb 0.00 in0.0 mm 0.00 in0.0 mm 0.21 in5.3 mm
05:00 PM 61.2°F16.2°C 52.8°F11.6°C 74% 9.9 mph E15.9 kmh E 9.1 mph14.6 kmh 29.54 in1000.3 mb 0.00 in0.0 mm 0.00 in0.0 mm 0.21 in5.3 mm
05:10 PM 61.0°F16.1°C 51.9°F11.1°C 72% 9.9 mph SE15.9 kmh SE 9.1 mph14.6 kmh 29.54 in1000.3 mb 0.00 in0.0 mm 0.00 in0.0 mm 0.21 in5.3 mm
05:20 PM 60.6°F15.9°C 51.5°F10.8°C 72% 7.6 mph SW12.2 kmh SW 9.1 mph14.6 kmh 29.55 in1000.7 mb 0.00 in0.0 mm 0.00 in0.0 mm 0.21 in5.3 mm
05:30 PM 60.3°F15.7°C 51.2°F10.7°C 72% 7.1 mph SSW11.4 kmh SSW 9.1 mph14.6 kmh 29.54 in1000.3 mb 0.00 in0.0 mm 0.00 in0.0 mm 0.21 in5.3 mm
05:40 PM 60.1°F15.6°C 51.0°F10.6°C 72% 8.1 mph SSW13.0 kmh SSW 9.1 mph14.6 kmh 29.54 in1000.3 mb 0.00 in0.0 mm 0.00 in0.0 mm 0.21 in5.3 mm
05:50 PM 59.7°F15.4°C 51.0°F10.6°C 73% 6.8 mph SW10.9 kmh SW 9.1 mph14.6 kmh 29.55 in1000.7 mb 0.00 in0.0 mm 0.00 in0.0 mm 0.21 in5.3 mm
06:00 PM 59.4°F15.2°C 50.7°F10.4°C 73% 4.8 mph S7.7 kmh S 4.9 mph7.9 kmh 29.54 in1000.3 mb 0.00 in0.0 mm 0.00 in0.0 mm 0.21 in5.3 mm
06:10 PM 58.8°F14.9°C 50.9°F10.5°C 75% 5.9 mph S9.5 kmh S 4.2 mph6.8 kmh 29.55 in1000.7 mb 0.00 in0.0 mm 0.00 in0.0 mm 0.21 in5.3 mm
06:20 PM 58.3°F14.6°C 50.7°F10.4°C 76% 4.3 mph SW6.9 kmh SW 4.2 mph6.8 kmh 29.55 in1000.7 mb 0.00 in0.0 mm 0.00 in0.0 mm 0.21 in5.3 mm
06:30 PM 57.9°F14.4°C 51.1°F10.6°C 78% 5.5 mph S8.9 kmh S 7.6 mph12.2 kmh 29.55 in1000.7 mb 0.00 in0.0 mm 0.00 in0.0 mm 0.21 in5.3 mm
06:40 PM 57.7°F14.3°C 51.3°F10.7°C 79% 6.7 mph SSW10.8 kmh SSW 8.4 mph13.5 kmh 29.55 in1000.7 mb 0.00 in0.0 mm 0.00 in0.0 mm 0.21 in5.3 mm
06:50 PM 57.7°F14.3°C 51.3°F10.7°C 79% 7.3 mph SSW11.7 kmh SSW 8.4 mph13.5 kmh 29.55 in1000.7 mb 0.00 in0.0 mm 0.00 in0.0 mm 0.21 in5.3 mm
07:00 PM 57.7°F14.3°C 50.9°F10.5°C 78% 7.3 mph S11.7 kmh S 9.1 mph14.6 kmh 29.56 in1001.0 mb 0.00 in0.0 mm 0.00 in0.0 mm 0.21 in5.3 mm
07:10 PM 57.7°F14.3°C 50.9°F10.5°C 78% 6.1 mph SSE9.8 kmh SSE 9.1 mph14.6 kmh 29.56 in1001.0 mb 0.00 in0.0 mm 0.00 in0.0 mm 0.21 in5.3 mm
07:20 PM 57.6°F14.2°C 51.1°F10.6°C 79% 7.2 mph S11.6 kmh S 8.4 mph13.5 kmh 29.56 in1001.0 mb 0.00 in0.0 mm 0.00 in0.0 mm 0.21 in5.3 mm
07:30 PM 57.4°F14.1°C 50.9°F10.5°C 79% 6.9 mph SE11.1 kmh SE 9.1 mph14.6 kmh 29.57 in1001.4 mb 0.00 in0.0 mm 0.00 in0.0 mm 0.21 in5.3 mm
07:40 PM 57.4°F14.1°C 50.9°F10.5°C 79% 8.7 mph SSW14.0 kmh SSW 9.1 mph14.6 kmh 29.57 in1001.4 mb 0.00 in0.0 mm 0.00 in0.0 mm 0.21 in5.3 mm
07:50 PM 57.2°F14.0°C 50.4°F10.2°C 78% 7.5 mph S12.1 kmh S 9.1 mph14.6 kmh 29.57 in1001.4 mb 0.00 in0.0 mm 0.00 in0.0 mm 0.21 in5.3 mm
08:00 PM 57.0°F13.9°C 49.9°F9.9°C 77% 7.1 mph SSW11.4 kmh SSW 7.6 mph12.2 kmh 29.57 in1001.4 mb 0.00 in0.0 mm 0.00 in0.0 mm 0.21 in5.3 mm
08:10 PM 56.7°F13.7°C 49.5°F9.7°C 77% 6.2 mph S10.0 kmh S 5.9 mph9.5 kmh 29.57 in1001.4 mb 0.00 in0.0 mm 0.00 in0.0 mm 0.21 in5.3 mm
08:20 PM 56.3°F13.5°C 49.2°F9.6°C 77% 6.5 mph SW10.5 kmh SW 8.4 mph13.5 kmh 29.57 in1001.4 mb 0.00 in0.0 mm 0.00 in0.0 mm 0.21 in5.3 mm
08:30 PM 56.1°F13.4°C 49.0°F9.4°C 77% 6.4 mph S10.3 kmh S 8.4 mph13.5 kmh 29.57 in1001.4 mb 0.00 in0.0 mm 0.00 in0.0 mm 0.21 in5.3 mm
08:40 PM 55.8°F13.2°C 49.0°F9.4°C 78% 6.1 mph SSW9.8 kmh SSW 6.6 mph10.6 kmh 29.57 in1001.4 mb 0.00 in0.0 mm 0.00 in0.0 mm 0.21 in5.3 mm
08:50 PM 55.6°F13.1°C 49.2°F9.6°C 79% 6.6 mph S10.6 kmh S 7.6 mph12.2 kmh 29.57 in1001.4 mb 0.00 in0.0 mm 0.00 in0.0 mm 0.21 in5.3 mm
09:00 PM 55.6°F13.1°C 49.5°F9.7°C 80% 7.5 mph SE12.1 kmh SE 8.4 mph13.5 kmh 29.57 in1001.4 mb 0.00 in0.0 mm 0.00 in0.0 mm 0.21 in5.3 mm
09:10 PM 55.6°F13.1°C 49.5°F9.7°C 80% 7.5 mph S12.1 kmh S 7.6 mph12.2 kmh 29.58 in1001.7 mb 0.00 in0.0 mm 0.00 in0.0 mm 0.21 in5.3 mm
09:20 PM 55.6°F13.1°C 49.5°F9.7°C 80% 6.1 mph SSW9.8 kmh SSW 7.6 mph12.2 kmh 29.58 in1001.7 mb 0.00 in0.0 mm 0.00 in0.0 mm 0.21 in5.3 mm
09:30 PM 55.6°F13.1°C 49.5°F9.7°C 80% 6.6 mph S10.6 kmh S 7.6 mph12.2 kmh 29.58 in1001.7 mb 0.00 in0.0 mm 0.00 in0.0 mm 0.21 in5.3 mm
09:40 PM 55.8°F13.2°C 50.0°F10.0°C 81% 8.9 mph S14.3 kmh S 10.8 mph17.4 kmh 29.58 in1001.7 mb 0.00 in0.0 mm 0.00 in0.0 mm 0.21 in5.3 mm
09:50 PM 55.8°F13.2°C 49.7°F9.8°C 80% 9.2 mph S14.8 kmh S 9.1 mph14.6 kmh 29.57 in1001.4 mb 0.00 in0.0 mm 0.00 in0.0 mm 0.21 in5.3 mm
10:00 PM 55.8°F13.2°C 49.7°F9.8°C 80% 9.1 mph SE14.6 kmh SE 11.8 mph19.0 kmh 29.58 in1001.7 mb 0.00 in0.0 mm 0.00 in0.0 mm 0.21 in5.3 mm
10:10 PM 55.9°F13.3°C 49.9°F9.9°C 80% 7.3 mph S11.7 kmh S 5.9 mph9.5 kmh 29.58 in1001.7 mb 0.00 in0.0 mm 0.00 in0.0 mm 0.21 in5.3 mm
10:20 PM 55.8°F13.2°C 49.3°F9.6°C 79% 7.3 mph S11.7 kmh S 9.1 mph14.6 kmh 29.58 in1001.7 mb 0.00 in0.0 mm 0.00 in0.0 mm 0.21 in5.3 mm
10:30 PM 55.6°F13.1°C 49.5°F9.7°C 80% 7.8 mph S12.6 kmh S 9.1 mph14.6 kmh 29.58 in1001.7 mb 0.00 in0.0 mm 0.00 in0.0 mm 0.21 in5.3 mm
10:40 PM 55.6°F13.1°C 49.8°F9.9°C 81% 9.0 mph SE14.5 kmh SE 11.8 mph19.0 kmh 29.58 in1001.7 mb 0.00 in0.0 mm 0.00 in0.0 mm 0.21 in5.3 mm
10:50 PM 55.8°F13.2°C 50.0°F10.0°C 81% 10.8 mph S17.4 kmh S 11.8 mph19.0 kmh 29.58 in1001.7 mb 0.00 in0.0 mm 0.00 in0.0 mm 0.21 in5.3 mm
11:00 PM 55.8°F13.2°C 50.0°F10.0°C 81% 11.8 mph SE19.0 kmh SE 11.8 mph19.0 kmh 29.58 in1001.7 mb 0.00 in0.0 mm 0.00 in0.0 mm 0.17 in4.3 mm
11:10 PM 55.8°F13.2°C 50.0°F10.0°C 81% 11.4 mph SSE18.3 kmh SSE 13.3 mph21.4 kmh 29.58 in1001.7 mb 0.00 in0.0 mm 0.00 in0.0 mm 0.17 in4.3 mm
11:20 PM 55.6°F13.1°C 50.2°F10.1°C 82% 10.7 mph SW17.2 kmh SW 12.5 mph20.1 kmh 29.58 in1001.7 mb 0.00 in0.0 mm 0.00 in0.0 mm 0.17 in4.3 mm
11:30 PM 55.4°F13.0°C 50.3°F10.2°C 83% 9.6 mph S15.4 kmh S 10.8 mph17.4 kmh 29.58 in1001.7 mb 0.00 in0.0 mm 0.00 in0.0 mm 0.17 in4.3 mm
11:40 PM 55.4°F13.0°C 50.3°F10.2°C 83% 9.1 mph S14.6 kmh S 12.5 mph20.1 kmh 29.58 in1001.7 mb 0.00 in0.0 mm 0.00 in0.0 mm 0.17 in4.3 mm
11:50 PM 55.2°F12.9°C 50.5°F10.3°C 84% 10.3 mph S16.6 kmh S 13.3 mph21.4 kmh 29.57 in1001.4 mb 0.00 in0.0 mm 0.00 in0.0 mm 0.17 in4.3 mm